sensor_id;sensor_type;location;lat;lon;timestamp;temperature;humidity
45735;DHT22;31446;49.632;8.328;2022-12-07T00:02:49;4.00;99.90
45735;DHT22;31446;49.632;8.328;2022-12-07T00:17:55;4.10;99.90
45735;DHT22;31446;49.632;8.328;2022-12-07T00:33:01;4.20;99.90
45735;DHT22;31446;49.632;8.328;2022-12-07T00:48:08;4.30;99.90
45735;DHT22;31446;49.632;8.328;2022-12-07T01:03:14;4.20;99.90
45735;DHT22;31446;49.632;8.328;2022-12-07T01:18:21;4.30;99.90
45735;DHT22;31446;49.632;8.328;2022-12-07T01:33:28;4.50;99.90
45735;DHT22;31446;49.632;8.328;2022-12-07T01:48:40;4.30;99.90
45735;DHT22;31446;49.632;8.328;2022-12-07T02:03:48;4.20;99.90
45735;DHT22;31446;49.632;8.328;2022-12-07T02:19:25;4.10;99.90
45735;DHT22;31446;49.632;8.328;2022-12-07T02:34:42;3.60;99.90
45735;DHT22;31446;49.632;8.328;2022-12-07T02:49:50;3.70;99.90
45735;DHT22;31446;49.632;8.328;2022-12-07T03:05:07;3.90;99.90
45735;DHT22;31446;49.632;8.328;2022-12-07T03:20:17;4.00;99.90
45735;DHT22;31446;49.632;8.328;2022-12-07T03:35:27;4.10;99.90
45735;DHT22;31446;49.632;8.328;2022-12-07T03:50:41;4.20;99.90
45735;DHT22;31446;49.632;8.328;2022-12-07T04:05:48;4.20;99.90
45735;DHT22;31446;49.632;8.328;2022-12-07T04:20:55;4.30;99.90
45735;DHT22;31446;49.632;8.328;2022-12-07T04:36:01;4.40;99.90
45735;DHT22;31446;49.632;8.328;2022-12-07T04:51:07;4.40;99.90
45735;DHT22;31446;49.632;8.328;2022-12-07T05:06:14;4.50;99.90
45735;DHT22;31446;49.632;8.328;2022-12-07T05:21:20;4.40;99.90
45735;DHT22;31446;49.632;8.328;2022-12-07T05:36:26;4.40;99.90
45735;DHT22;31446;49.632;8.328;2022-12-07T05:51:34;4.50;99.90
45735;DHT22;31446;49.632;8.328;2022-12-07T06:06:40;4.70;99.90
45735;DHT22;31446;49.632;8.328;2022-12-07T06:21:46;4.40;99.90
45735;DHT22;31446;49.632;8.328;2022-12-07T06:36:53;4.30;99.90
45735;DHT22;31446;49.632;8.328;2022-12-07T06:51:59;4.30;99.90
45735;DHT22;31446;49.632;8.328;2022-12-07T07:07:08;4.30;99.90
45735;DHT22;31446;49.632;8.328;2022-12-07T07:22:14;4.50;99.90
45735;DHT22;31446;49.632;8.328;2022-12-07T07:37:20;4.70;99.90
45735;DHT22;31446;49.632;8.328;2022-12-07T07:52:26;4.80;99.90
45735;DHT22;31446;49.632;8.328;2022-12-07T08:07:32;4.90;99.90
45735;DHT22;31446;49.632;8.328;2022-12-07T08:22:39;5.10;99.90
45735;DHT22;31446;49.632;8.328;2022-12-07T08:37:46;5.30;99.90
45735;DHT22;31446;49.632;8.328;2022-12-07T08:52:55;5.50;99.90
45735;DHT22;31446;49.632;8.328;2022-12-07T09:08:02;5.80;99.90
45735;DHT22;31446;49.632;8.328;2022-12-07T09:23:09;6.10;99.90
45735;DHT22;31446;49.632;8.328;2022-12-07T09:38:16;6.20;99.90
45735;DHT22;31446;49.632;8.328;2022-12-07T09:53:25;6.40;99.90
45735;DHT22;31446;49.632;8.328;2022-12-07T10:08:32;5.90;99.90
45735;DHT22;31446;49.632;8.328;2022-12-07T10:23:40;6.10;99.90
45735;DHT22;31446;49.632;8.328;2022-12-07T10:38:48;7.30;99.90
45735;DHT22;31446;49.632;8.328;2022-12-07T10:54:02;7.30;99.90
45735;DHT22;31446;49.632;8.328;2022-12-07T11:09:38;7.10;99.90
45735;DHT22;31446;49.632;8.328;2022-12-07T11:24:57;7.30;99.90
45735;DHT22;31446;49.632;8.328;2022-12-07T11:40:17;7.00;99.90
45735;DHT22;31446;49.632;8.328;2022-12-07T11:55:29;7.30;99.90
45735;DHT22;31446;49.632;8.328;2022-12-07T12:10:45;7.20;99.90
45735;DHT22;31446;49.632;8.328;2022-12-07T12:25:57;7.30;99.90
45735;DHT22;31446;49.632;8.328;2022-12-07T12:41:04;7.20;99.90
45735;DHT22;31446;49.632;8.328;2022-12-07T12:56:34;7.40;99.90
45735;DHT22;31446;49.632;8.328;2022-12-07T13:11:44;7.70;99.90
45735;DHT22;31446;49.632;8.328;2022-12-07T13:26:56;7.90;99.90
45735;DHT22;31446;49.632;8.328;2022-12-07T13:42:17;7.30;99.90
45735;DHT22;31446;49.632;8.328;2022-12-07T13:57:26;7.40;99.90
45735;DHT22;31446;49.632;8.328;2022-12-07T14:12:36;7.80;99.90
45735;DHT22;31446;49.632;8.328;2022-12-07T14:27:52;7.90;99.90
45735;DHT22;31446;49.632;8.328;2022-12-07T14:43:01;7.20;99.90
45735;DHT22;31446;49.632;8.328;2022-12-07T14:58:12;6.90;99.90
45735;DHT22;31446;49.632;8.328;2022-12-07T15:13:19;6.80;99.90
45735;DHT22;31446;49.632;8.328;2022-12-07T15:28:37;6.50;99.90
45735;DHT22;31446;49.632;8.328;2022-12-07T15:43:44;6.30;99.90
45735;DHT22;31446;49.632;8.328;2022-12-07T15:59:02;5.80;99.90
45735;DHT22;31446;49.632;8.328;2022-12-07T16:14:09;5.60;99.90
45735;DHT22;31446;49.632;8.328;2022-12-07T16:29:16;5.50;99.90
45735;DHT22;31446;49.632;8.328;2022-12-07T16:44:22;5.30;99.90
45735;DHT22;31446;49.632;8.328;2022-12-07T16:59:28;5.20;99.90
45735;DHT22;31446;49.632;8.328;2022-12-07T17:14:35;5.10;99.90
45735;DHT22;31446;49.632;8.328;2022-12-07T17:29:53;5.00;99.90
45735;DHT22;31446;49.632;8.328;2022-12-07T17:45:00;4.80;99.90
45735;DHT22;31446;49.632;8.328;2022-12-07T18:00:07;4.70;99.90
45735;DHT22;31446;49.632;8.328;2022-12-07T18:15:15;4.40;99.90
45735;DHT22;31446;49.632;8.328;2022-12-07T18:30:21;4.00;99.90
45735;DHT22;31446;49.632;8.328;2022-12-07T18:45:28;4.20;99.90
45735;DHT22;31446;49.632;8.328;2022-12-07T19:00:34;4.30;99.90
45735;DHT22;31446;49.632;8.328;2022-12-07T19:15:41;4.20;99.90
45735;DHT22;31446;49.632;8.328;2022-12-07T19:30:47;4.20;99.90
45735;DHT22;31446;49.632;8.328;2022-12-07T19:45:54;4.20;99.90
45735;DHT22;31446;49.632;8.328;2022-12-07T20:01:04;4.30;99.90
45735;DHT22;31446;49.632;8.328;2022-12-07T20:16:10;4.10;99.90
45735;DHT22;31446;49.632;8.328;2022-12-07T20:31:19;4.20;99.90
45735;DHT22;31446;49.632;8.328;2022-12-07T20:46:26;4.20;99.90
45735;DHT22;31446;49.632;8.328;2022-12-07T21:01:33;4.20;99.90
45735;DHT22;31446;49.632;8.328;2022-12-07T21:16:39;4.10;99.90
45735;DHT22;31446;49.632;8.328;2022-12-07T21:31:45;4.10;99.90
45735;DHT22;31446;49.632;8.328;2022-12-07T21:46:51;4.20;99.90
45735;DHT22;31446;49.632;8.328;2022-12-07T22:01:58;4.20;99.90
45735;DHT22;31446;49.632;8.328;2022-12-07T22:17:04;4.20;99.90
45735;DHT22;31446;49.632;8.328;2022-12-07T22:32:10;4.30;99.90
45735;DHT22;31446;49.632;8.328;2022-12-07T22:47:16;4.40;99.90
45735;DHT22;31446;49.632;8.328;2022-12-07T23:02:23;4.30;99.90
45735;DHT22;31446;49.632;8.328;2022-12-07T23:17:29;4.30;99.90
45735;DHT22;31446;49.632;8.328;2022-12-07T23:32:35;4.20;99.90
45735;DHT22;31446;49.632;8.328;2022-12-07T23:47:41;4.10;99.90
